Daily Weather Observations for Burdell (Townsville)
For Friday 15th February 2019

This table is designed for ease of comparison to Bureau of Meteorology recorded weather data.

Station Details Name: BURDELL Lat: -19.24 Lon: 146.69 Height: 8.5 m
Date/Time
EST
Temp
°C
App
Temp
°C
Dew
Point
°C
Rel
Hum
%
Delta-T
°C
Wind Press
QNH
hPa
Press
MSL
hPa
Rain since
9am
mm
Dir  Spd
km/h
Gust
km/h
Spd
kts
Gust
kts
15/11:30pm 27.1 32.5 23.9 83 2.3 SE 3 5 2 3 1011.0 1011.0 0.0
15/11:00pm 26.8 32.8 24.3 86 1.8 ENE 0 1 0 1 1011.0 1011.0 0.0
15/10:30pm 27.1 32.7 24.6 86 1.8 E 4 5 2 3 1010.9 1010.9 0.0
15/10:00pm 27.1 33.0 24.6 86 1.8 ENE 3 5 1 3 1010.8 1010.8 0.0
15/09:30pm 27.1 33.1 24.4 85 2.0 ENE 1 3 1 2 1010.6 1010.6 0.0
15/09:00pm 27.2 33.1 24.5 85 2.0 ENE 2 5 1 3 1010.4 1010.4 0.0
15/08:30pm 27.3 32.7 24.6 85 2.0 ENE 4 8 2 4 1010.2 1010.2 0.0
15/08:00pm 27.5 32.9 24.5 84 2.2 E 4 6 2 4 1010.0 1010.0 0.0
15/07:30pm 27.8 32.5 24.3 82 2.6 ENE 9 16 5 9 1009.5 1009.5 0.0
15/07:00pm 28.2 33.8 24.4 80 2.8 N 3 8 2 4 1009.1 1009.1 0.0
15/06:30pm 29.1 34.4 24.7 78 3.2 NE 6 8 3 4 1008.8 1008.8 0.0
15/06:00pm 29.6 35.0 24.6 75 3.7 NE 9 13 5 7 1008.6 1008.6 0.0
15/05:30pm 29.8 35.0 24.2 72 4.1 NE 10 16 5 9 1008.4 1008.4 0.0
15/05:00pm 30.1 35.3 24.0 70 4.4 ENE 12 18 7 10 1008.4 1008.4 0.0
15/04:30pm 30.7 37.1 25.0 72 4.2 ENE 17 21 9 11 1008.2 1008.2 0.0
15/04:00pm 31.9 38.7 24.8 67 5.2 ENE 22 32 12 17 1008.4 1008.4 0.0
15/03:30pm 31.7 38.0 24.6 67 5.2 ENE 21 32 11 17 1008.6 1008.6 0.0
15/03:00pm 32.6 39.9 25.0 65 5.6 NNE 20 29 11 16 1008.7 1008.7 0.0
15/02:30pm 32.7 41.7 26.0 68 5.0 NE 21 32 11 17 1009.0 1009.0 0.0
15/02:00pm 32.9 42.1 26.3 69 5.0 NE 20 29 11 16 1009.2 1009.2 0.0
15/01:30pm 33.4 43.1 26.3 67 5.3 NE 20 29 11 16 1009.4 1009.4 0.0
15/01:00pm 33.4 43.1 26.3 67 5.3 NE 15 23 8 13 1009.6 1009.6 0.0
15/12:30pm 33.4 42.6 25.9 65 5.6 NE 16 23 9 13 1010.0 1010.0 0.0
15/12:00pm 33.3 42.7 26.1 66 5.4 ENE 16 21 9 11 1010.2 1010.2 0.0
15/11:30am 33.0 41.8 25.8 66 5.4 NE 13 21 7 11 1010.7 1010.7 0.0
15/11:00am 32.7 40.5 25.5 67 5.3 NE 14 21 7 11 1011.1 1011.1 0.0
15/10:30am 31.4 38.7 25.4 71 4.5 E 15 21 8 11 1011.2 1011.2 0.0
15/10:00am 31.9 40.1 25.7 70 4.6 ENE 13 21 7 11 1011.2 1011.2 0.0
15/09:30am 31.7 39.9 25.9 72 4.3 ENE 11 21 6 11 1011.0 1011.0 0.0
15/09:00am 31.3 39.7 26.1 74 3.9 E 11 16 6 9 1010.8 1010.8 0.0
15/08:30am 30.2 37.7 26.1 79 3.1 ESE 13 21 7 11 1010.5 1010.5 0.0
15/08:00am 29.6 36.5 25.8 81 2.8 ESE 11 16 6 9 1010.3 1010.3 0.0
15/07:30am 28.7 34.5 25.6 86 2.3 SE 10 16 6 9 1010.1 1010.1 0.0
15/07:00am 27.9 34.0 25.9 89 1.5 SE 5 8 3 4 1009.8 1009.8 0.0
15/06:30am 27.4 33.7 25.7 91 1.3 SSE 4 8 2 4 1009.6 1009.6 0.0
15/06:00am 26.8 33.6 25.6 93 0.9 SSW 1 2 0 1 1009.1 1009.1 0.0
15/05:30am 26.6 33.3 25.6 94 0.7 SSW 0 2 0 1 1008.8 1008.8 0.0
15/05:00am 26.8 33.5 25.4 93 1.0 WSW 1 2 0 1 1008.5 1008.5 0.0
15/04:30am 26.8 33.5 25.4 92 1.0 CALM 0 0 0 0 1008.4 1008.4 0.0
15/04:00am 27.1 33.7 25.6 92 1.1 WSW 1 2 1 1 1008.3 1008.3 0.0
15/03:30am 27.1 33.7 25.5 91 1.2 WSW 1 2 1 1 1008.2 1008.2 0.0
15/03:00am 27.2 33.9 25.8 92 1.0 WNW 2 2 1 1 1008.2 1008.2 0.0
15/02:30am 27.2 33.9 25.6 91 1.2 SSE 1 2 1 1 1008.4 1008.4 0.0
15/02:00am 27.5 34.2 25.6 90 1.4 SSE 1 2 0 1 1008.4 1008.4 0.0
15/01:30am 27.8 34.2 25.6 88 1.6 SE 4 5 2 3 1008.3 1008.3 0.0
15/01:00am 27.9 33.4 25.5 87 1.8 E 8 13 4 7 1008.5 1008.5 0.0
15/12:30am 28.2 33.6 25.6 86 1.9 SE 13 16 7 9 1008.7 1008.7 0.0
15/12:00am 28.1 33.5 25.7 87 1.8 SE 12 16 7 9 1008.8 1008.8 0.0
 


NOTE: The apparent temperature specified in the table above is calculated using both the Heat Index and Steadman method. This differs to the Bureau of Meteorology's calculation which uses the Steadman method alone.